Time,TemperatureF,DewpointF,PressureIn,WindDirection,WindDirectionDegrees,WindSpeedMPH,WindSpeedGustMPH,Humidity,HourlyPrecipIn,Conditions,Clouds,dailyrainin,SolarRadiationWatts/m^2,SoftwareType,DateUTC
2013-01-18 00:02:00,25.0,24.0,-100.00,NE,40,2.0,3.0,96,0.00,,,0.00,0.000000,,2013-01-18 06:02:00,
2013-01-18 00:33:00,25.0,24.0,-100.00,NE,40,2.0,3.0,96,0.00,,,0.00,0.000000,,2013-01-18 06:33:00,
2013-01-18 00:43:00,25.0,24.0,-100.00,NE,40,2.0,3.0,96,0.00,,,0.00,0.000000,,2013-01-18 06:43:00,
2013-01-18 00:53:00,25.0,24.0,-100.00,NE,40,2.0,3.0,96,0.00,,,0.00,0.000000,,2013-01-18 06:53:00,
2013-01-18 01:02:00,24.0,23.0,-100.00,NE,39,0.0,4.0,96,0.00,,,0.00,0.000000,,2013-01-18 07:02:00,
2013-01-18 01:33:00,24.0,23.0,-100.00,NE,39,0.0,4.0,96,0.00,,,0.00,0.000000,,2013-01-18 07:33:00,
2013-01-18 01:42:00,24.0,23.0,-100.00,NE,39,0.0,4.0,96,0.00,,,0.00,0.000000,,2013-01-18 07:42:00,
2013-01-18 01:52:00,24.0,23.0,-100.00,NE,39,0.0,4.0,96,0.00,,,0.00,0.000000,,2013-01-18 07:52:00,
2013-01-18 02:02:00,23.0,22.0,-100.00,NE,39,1.0,3.0,95,0.00,,,0.00,0.000000,,2013-01-18 08:02:00,
2013-01-18 02:22:00,23.0,22.0,-100.00,NE,39,1.0,3.0,95,0.00,,,0.00,0.000000,,2013-01-18 08:22:00,
2013-01-18 02:33:00,23.0,22.0,-100.00,NE,39,1.0,3.0,95,0.00,,,0.00,0.000000,,2013-01-18 08:33:00,
2013-01-18 02:43:00,23.0,22.0,-100.00,NE,39,1.0,3.0,95,0.00,,,0.00,0.000000,,2013-01-18 08:43:00,
2013-01-18 02:53:00,23.0,22.0,-100.00,NE,39,1.0,3.0,95,0.00,,,0.00,0.000000,,2013-01-18 08:53:00,
2013-01-18 03:02:00,23.0,22.0,-100.00,NE,39,0.0,2.0,95,0.00,,,0.00,0.000000,,2013-01-18 09:02:00,
2013-01-18 03:22:00,23.0,22.0,-100.00,NE,39,0.0,2.0,95,0.00,,,0.00,0.000000,,2013-01-18 09:22:00,
2013-01-18 03:33:00,23.0,22.0,-100.00,NE,39,0.0,2.0,95,0.00,,,0.00,0.000000,,2013-01-18 09:33:00,
2013-01-18 03:43:00,23.0,22.0,-100.00,NE,39,0.0,2.0,95,0.00,,,0.00,0.000000,,2013-01-18 09:43:00,
2013-01-18 03:53:00,23.0,22.0,-100.00,NE,39,0.0,2.0,95,0.00,,,0.00,0.000000,,2013-01-18 09:53:00,
2013-01-18 04:02:00,22.0,21.0,-100.00,NE,39,0.0,0.0,94,0.00,,,0.00,0.000000,,2013-01-18 10:02:00,
2013-01-18 04:22:00,22.0,21.0,-100.00,NE,39,0.0,0.0,94,0.00,,,0.00,0.000000,,2013-01-18 10:22:00,
2013-01-18 04:33:00,22.0,21.0,-100.00,NE,39,0.0,0.0,94,0.00,,,0.00,0.000000,,2013-01-18 10:33:00,
2013-01-18 04:43:00,22.0,21.0,-100.00,NE,39,0.0,0.0,94,0.00,,,0.00,0.000000,,2013-01-18 10:43:00,
2013-01-18 04:53:00,22.0,21.0,-100.00,NE,39,0.0,0.0,94,0.00,,,0.00,0.000000,,2013-01-18 10:53:00,
2013-01-18 05:02:00,21.0,20.0,-100.00,NE,39,0.0,2.0,94,0.00,,,0.00,0.000000,,2013-01-18 11:02:00,
2013-01-18 05:23:00,21.0,20.0,-100.00,NE,39,0.0,2.0,94,0.00,,,0.00,0.000000,,2013-01-18 11:23:00,
2013-01-18 05:33:00,21.0,20.0,-100.00,NE,39,0.0,2.0,94,0.00,,,0.00,0.000000,,2013-01-18 11:33:00,
2013-01-18 05:42:00,21.0,20.0,-100.00,NE,39,0.0,2.0,94,0.00,,,0.00,0.000000,,2013-01-18 11:42:00,
2013-01-18 05:53:00,21.0,20.0,-100.00,NE,39,0.0,2.0,94,0.00,,,0.00,0.000000,,2013-01-18 11:53:00,
2013-01-18 06:02:00,20.0,19.0,-100.00,NE,39,0.0,0.0,94,0.00,,,0.00,0.000000,,2013-01-18 12:02:00,
2013-01-18 06:33:00,20.0,19.0,-100.00,NE,39,0.0,0.0,94,0.00,,,0.00,0.000000,,2013-01-18 12:33:00,
2013-01-18 06:43:00,20.0,19.0,-100.00,NE,39,0.0,0.0,94,0.00,,,0.00,0.000000,,2013-01-18 12:43:00,
2013-01-18 06:53:00,20.0,19.0,-100.00,NE,39,0.0,0.0,94,0.00,,,0.00,0.000000,,2013-01-18 12:53:00,
2013-01-18 07:02:00,20.0,19.0,-100.00,NE,39,0.0,0.0,94,0.00,,,0.00,0.000000,,2013-01-18 13:02:00,
2013-01-18 07:33:00,20.0,19.0,-100.00,NE,39,0.0,0.0,94,0.00,,,0.00,0.000000,,2013-01-18 13:33:00,
2013-01-18 07:43:00,20.0,19.0,-100.00,NE,39,0.0,0.0,94,0.00,,,0.00,0.000000,,2013-01-18 13:43:00,
2013-01-18 07:53:00,20.0,19.0,-100.00,NE,39,0.0,0.0,94,0.00,,,0.00,0.000000,,2013-01-18 13:53:00,
2013-01-18 08:02:00,24.0,21.0,-100.00,NE,39,1.0,2.0,89,0.00,,,0.00,31.000000,,2013-01-18 14:02:00,
2013-01-18 08:34:00,24.0,21.0,-100.00,NE,39,1.0,2.0,89,0.00,,,0.00,31.000000,,2013-01-18 14:34:00,
2013-01-18 08:43:00,24.0,21.0,-100.00,NE,39,1.0,2.0,89,0.00,,,0.00,31.000000,,2013-01-18 14:43:00,
2013-01-18 08:53:00,24.0,21.0,-100.00,NE,39,1.0,2.0,89,0.00,,,0.00,31.000000,,2013-01-18 14:53:00,
2013-01-18 09:02:00,34.0,30.0,-100.00,ESE,109,1.0,2.0,85,0.00,,,0.00,4.000000,,2013-01-18 15:02:00,
2013-01-18 09:34:00,34.0,30.0,-100.00,ESE,109,1.0,2.0,85,0.00,,,0.00,4.000000,,2013-01-18 15:34:00,
2013-01-18 09:43:00,34.0,30.0,-100.00,ESE,109,1.0,2.0,85,0.00,,,0.00,4.000000,,2013-01-18 15:43:00,
2013-01-18 09:54:00,34.0,30.0,-100.00,ESE,109,1.0,2.0,85,0.00,,,0.00,4.000000,,2013-01-18 15:54:00,
2013-01-18 10:02:00,45.0,32.0,-100.00,SE,137,2.0,4.0,60,0.00,,,0.00,0.000000,,2013-01-18 16:02:00,
2013-01-18 10:23:00,45.0,32.0,-100.00,SE,137,2.0,4.0,60,0.00,,,0.00,0.000000,,2013-01-18 16:23:00,
2013-01-18 10:33:00,45.0,32.0,-100.00,SE,137,2.0,4.0,60,0.00,,,0.00,0.000000,,2013-01-18 16:33:00,
2013-01-18 10:43:00,45.0,32.0,-100.00,SE,137,2.0,4.0,60,0.00,,,0.00,0.000000,,2013-01-18 16:43:00,
2013-01-18 10:53:00,45.0,32.0,-100.00,SE,137,2.0,4.0,60,0.00,,,0.00,0.000000,,2013-01-18 16:53:00,
2013-01-18 11:02:00,48.0,27.0,-100.00,SSE,148,6.0,10.0,44,0.00,,,0.00,0.000000,,2013-01-18 17:02:00,
2013-01-18 11:34:00,48.0,27.0,-100.00,SSE,148,6.0,10.0,44,0.00,,,0.00,0.000000,,2013-01-18 17:34:00,
2013-01-18 11:43:00,48.0,27.0,-100.00,SSE,148,6.0,10.0,44,0.00,,,0.00,0.000000,,2013-01-18 17:43:00,
2013-01-18 11:53:00,48.0,27.0,-100.00,SSE,148,6.0,10.0,44,0.00,,,0.00,0.000000,,2013-01-18 17:53:00,
2013-01-18 12:02:00,50.0,27.0,-100.00,SSE,152,7.0,12.0,41,0.00,,,0.00,0.000000,,2013-01-18 18:02:00,
2013-01-18 12:34:00,50.0,27.0,-100.00,SSE,152,7.0,12.0,41,0.00,,,0.00,0.000000,,2013-01-18 18:34:00,
2013-01-18 12:43:00,50.0,27.0,-100.00,SSE,152,7.0,12.0,41,0.00,,,0.00,0.000000,,2013-01-18 18:43:00,
2013-01-18 12:53:00,50.0,27.0,-100.00,SSE,152,7.0,12.0,41,0.00,,,0.00,0.000000,,2013-01-18 18:53:00,
2013-01-18 13:02:00,53.0,29.0,-100.00,SSE,153,6.0,11.0,40,0.00,,,-99.99,0.000000,,2013-01-18 19:02:00,
2013-01-18 13:33:00,53.0,29.0,-100.00,SSE,153,6.0,11.0,40,0.00,,,-99.99,0.000000,,2013-01-18 19:33:00,
2013-01-18 13:43:00,53.0,29.0,-100.00,SSE,153,6.0,11.0,40,0.00,,,-99.99,0.000000,,2013-01-18 19:43:00,
2013-01-18 13:53:00,53.0,29.0,-100.00,SSE,153,6.0,11.0,40,0.00,,,-99.99,0.000000,,2013-01-18 19:53:00,
2013-01-18 14:02:00,55.0,26.0,-100.00,South,178,7.0,12.0,32,0.00,,,-99.99,0.000000,,2013-01-18 20:02:00,
2013-01-18 14:33:00,55.0,26.0,-100.00,South,178,7.0,12.0,32,0.00,,,-99.99,0.000000,,2013-01-18 20:33:00,
2013-01-18 14:43:00,55.0,26.0,-100.00,South,178,7.0,12.0,32,0.00,,,-99.99,0.000000,,2013-01-18 20:43:00,
2013-01-18 14:53:00,55.0,26.0,-100.00,South,178,7.0,12.0,32,0.00,,,-99.99,0.000000,,2013-01-18 20:53:00,
2013-01-18 15:02:00,56.0,25.0,-100.00,SSE,167,7.0,11.0,30,0.00,,,0.00,0.000000,,2013-01-18 21:02:00,
2013-01-18 15:33:00,56.0,25.0,-100.00,SSE,167,7.0,11.0,30,0.00,,,0.00,0.000000,,2013-01-18 21:33:00,
2013-01-18 15:43:00,56.0,25.0,-100.00,SSE,167,7.0,11.0,30,0.00,,,0.00,0.000000,,2013-01-18 21:43:00,
2013-01-18 15:53:00,56.0,25.0,-100.00,SSE,167,7.0,11.0,30,0.00,,,0.00,0.000000,,2013-01-18 21:53:00,
2013-01-18 16:02:00,56.0,24.0,-100.00,South,177,6.0,13.0,29,0.00,,,0.00,0.000000,,2013-01-18 22:02:00,
2013-01-18 16:33:00,56.0,24.0,-100.00,South,177,6.0,13.0,29,0.00,,,0.00,0.000000,,2013-01-18 22:33:00,
2013-01-18 16:43:00,56.0,24.0,-100.00,South,177,6.0,13.0,29,0.00,,,0.00,0.000000,,2013-01-18 22:43:00,
2013-01-18 16:53:00,56.0,24.0,-100.00,South,177,6.0,13.0,29,0.00,,,0.00,0.000000,,2013-01-18 22:53:00,
2013-01-18 17:02:00,52.0,24.0,-100.00,South,184,6.0,10.0,33,0.00,,,0.00,0.000000,,2013-01-18 23:02:00,
2013-01-18 17:23:00,52.0,24.0,-100.00,South,184,6.0,10.0,33,0.00,,,0.00,0.000000,,2013-01-18 23:23:00,
2013-01-18 17:33:00,52.0,24.0,-100.00,South,184,6.0,10.0,33,0.00,,,0.00,0.000000,,2013-01-18 23:33:00,
2013-01-18 17:43:00,52.0,24.0,-100.00,South,184,6.0,10.0,33,0.00,,,0.00,0.000000,,2013-01-18 23:43:00,
2013-01-18 17:53:00,52.0,24.0,-100.00,South,184,6.0,10.0,33,0.00,,,0.00,0.000000,,2013-01-18 23:53:00,
2013-01-18 18:02:00,43.0,27.0,-100.00,ENE,61,1.0,8.0,53,0.00,,,0.00,0.000000,,2013-01-19 00:02:00,
2013-01-18 18:23:00,43.0,27.0,-100.00,ENE,61,1.0,8.0,53,0.00,,,0.00,0.000000,,2013-01-19 00:23:00,
2013-01-18 18:33:00,43.0,27.0,-100.00,ENE,61,1.0,8.0,53,0.00,,,0.00,0.000000,,2013-01-19 00:33:00,
2013-01-18 18:43:00,43.0,27.0,-100.00,ENE,61,1.0,8.0,53,0.00,,,0.00,0.000000,,2013-01-19 00:43:00,
2013-01-18 18:53:00,43.0,27.0,-100.00,ENE,61,1.0,8.0,53,0.00,,,0.00,0.000000,,2013-01-19 00:53:00,
2013-01-18 19:02:00,35.0,28.0,-100.00,North,9,2.0,4.0,76,0.00,,,0.00,0.000000,,2013-01-19 01:02:00,
2013-01-18 19:23:00,35.0,28.0,-100.00,North,9,2.0,4.0,76,0.00,,,0.00,0.000000,,2013-01-19 01:23:00,
2013-01-18 19:33:00,35.0,28.0,-100.00,North,9,2.0,4.0,76,0.00,,,0.00,0.000000,,2013-01-19 01:33:00,
2013-01-18 19:43:00,35.0,28.0,-100.00,North,9,2.0,4.0,76,0.00,,,0.00,0.000000,,2013-01-19 01:43:00,
2013-01-18 19:53:00,35.0,28.0,-100.00,North,9,2.0,4.0,76,0.00,,,0.00,0.000000,,2013-01-19 01:53:00,
2013-01-18 20:02:00,31.0,27.0,-100.00,North,9,2.0,3.0,85,0.00,,,0.00,0.000000,,2013-01-19 02:02:00,
2013-01-18 20:33:00,31.0,27.0,-100.00,North,9,2.0,3.0,85,0.00,,,0.00,0.000000,,2013-01-19 02:33:00,
2013-01-18 20:43:00,31.0,27.0,-100.00,North,9,2.0,3.0,85,0.00,,,0.00,0.000000,,2013-01-19 02:43:00,
2013-01-18 20:53:00,31.0,27.0,-100.00,North,9,2.0,3.0,85,0.00,,,0.00,0.000000,,2013-01-19 02:53:00,
2013-01-18 21:02:00,29.0,26.0,-100.00,NNE,20,2.0,3.0,90,0.00,,,0.00,0.000000,,2013-01-19 03:02:00,
2013-01-18 21:33:00,29.0,26.0,-100.00,NNE,20,2.0,3.0,90,0.00,,,0.00,0.000000,,2013-01-19 03:33:00,
2013-01-18 21:44:00,29.0,26.0,-100.00,NNE,20,2.0,3.0,90,0.00,,,0.00,0.000000,,2013-01-19 03:44:00,
2013-01-18 21:53:00,29.0,26.0,-100.00,NNE,20,2.0,3.0,90,0.00,,,0.00,0.000000,,2013-01-19 03:53:00,
2013-01-18 22:02:00,27.0,25.0,-100.00,NNE,13,1.0,4.0,91,0.00,,,0.00,0.000000,,2013-01-19 04:02:00,
2013-01-18 22:33:00,27.0,25.0,-100.00,NNE,13,1.0,4.0,91,0.00,,,0.00,0.000000,,2013-01-19 04:33:00,
2013-01-18 22:43:00,27.0,25.0,-100.00,NNE,13,1.0,4.0,91,0.00,,,0.00,0.000000,,2013-01-19 04:43:00,
2013-01-18 22:53:00,27.0,25.0,-100.00,NNE,13,1.0,4.0,91,0.00,,,0.00,0.000000,,2013-01-19 04:53:00,
2013-01-18 23:02:00,26.0,25.0,-100.00,North,10,2.0,4.0,94,0.00,,,-99.99,0.000000,,2013-01-19 05:02:00,
2013-01-18 23:23:00,26.0,25.0,-100.00,North,10,2.0,4.0,94,0.00,,,-99.99,0.000000,,2013-01-19 05:23:00,
2013-01-18 23:33:00,26.0,25.0,-100.00,North,10,2.0,4.0,94,0.00,,,-99.99,0.000000,,2013-01-19 05:33:00,
2013-01-18 23:43:00,26.0,25.0,-100.00,North,10,2.0,4.0,94,0.00,,,-99.99,0.000000,,2013-01-19 05:43:00,
2013-01-18 23:53:00,26.0,25.0,-100.00,North,10,2.0,4.0,94,0.00,,,-99.99,0.000000,,2013-01-19 05:53:00,